sensor_id;sensor_type;location;lat;lon;timestamp;P1;durP1;ratioP1;P2;durP2;ratioP2
505;SDS011;551;48.524;9.056;2023-07-09T00:01:56;5.53;;;5.00;;
505;SDS011;551;48.524;9.056;2023-07-09T00:04:21;9.50;;;5.60;;
505;SDS011;551;48.524;9.056;2023-07-09T00:06:47;5.10;;;4.60;;
505;SDS011;551;48.524;9.056;2023-07-09T00:09:17;7.47;;;5.00;;
505;SDS011;551;48.524;9.056;2023-07-09T00:11:44;9.93;;;4.40;;
505;SDS011;551;48.524;9.056;2023-07-09T00:14:11;7.67;;;4.87;;
505;SDS011;551;48.524;9.056;2023-07-09T00:16:39;6.43;;;4.40;;
505;SDS011;551;48.524;9.056;2023-07-09T00:19:09;8.93;;;4.53;;
505;SDS011;551;48.524;9.056;2023-07-09T00:21:38;7.60;;;4.70;;
505;SDS011;551;48.524;9.056;2023-07-09T00:24:04;7.53;;;5.00;;
505;SDS011;551;48.524;9.056;2023-07-09T00:26:30;5.73;;;4.60;;
505;SDS011;551;48.524;9.056;2023-07-09T00:28:59;10.13;;;4.77;;
505;SDS011;551;48.524;9.056;2023-07-09T00:31:28;6.23;;;4.50;;
505;SDS011;551;48.524;9.056;2023-07-09T00:33:54;6.70;;;5.00;;
505;SDS011;551;48.524;9.056;2023-07-09T00:36:27;7.17;;;4.87;;
505;SDS011;551;48.524;9.056;2023-07-09T00:38:56;7.70;;;5.13;;
505;SDS011;551;48.524;9.056;2023-07-09T00:41:24;10.03;;;4.57;;
505;SDS011;551;48.524;9.056;2023-07-09T00:43:51;5.30;;;4.80;;
505;SDS011;551;48.524;9.056;2023-07-09T00:48:48;8.20;;;5.40;;
505;SDS011;551;48.524;9.056;2023-07-09T00:51:17;7.43;;;5.07;;
505;SDS011;551;48.524;9.056;2023-07-09T00:53:46;9.77;;;5.03;;
505;SDS011;551;48.524;9.056;2023-07-09T00:56:16;8.40;;;4.80;;
505;SDS011;551;48.524;9.056;2023-07-09T00:58:50;9.87;;;6.40;;
505;SDS011;551;48.524;9.056;2023-07-09T01:01:18;6.23;;;4.70;;
505;SDS011;551;48.524;9.056;2023-07-09T01:03:45;5.90;;;4.70;;
505;SDS011;551;48.524;9.056;2023-07-09T01:06:13;6.50;;;4.87;;
505;SDS011;551;48.524;9.056;2023-07-09T01:08:40;9.10;;;5.60;;
505;SDS011;551;48.524;9.056;2023-07-09T01:11:20;11.13;;;5.47;;
505;SDS011;551;48.524;9.056;2023-07-09T01:13:49;5.77;;;4.80;;
505;SDS011;551;48.524;9.056;2023-07-09T01:16:19;8.60;;;4.97;;
505;SDS011;551;48.524;9.056;2023-07-09T01:18:48;7.43;;;5.27;;
505;SDS011;551;48.524;9.056;2023-07-09T01:21:18;5.27;;;4.53;;
505;SDS011;551;48.524;9.056;2023-07-09T01:23:44;8.27;;;5.30;;
505;SDS011;551;48.524;9.056;2023-07-09T01:26:12;5.63;;;4.63;;
505;SDS011;551;48.524;9.056;2023-07-09T01:28:45;8.47;;;5.10;;
505;SDS011;551;48.524;9.056;2023-07-09T01:31:12;8.70;;;5.50;;
505;SDS011;551;48.524;9.056;2023-07-09T01:33:39;7.33;;;5.20;;
505;SDS011;551;48.524;9.056;2023-07-09T01:36:10;7.33;;;5.67;;
505;SDS011;551;48.524;9.056;2023-07-09T01:38:41;11.90;;;5.50;;
505;SDS011;551;48.524;9.056;2023-07-09T01:41:08;6.73;;;4.70;;
505;SDS011;551;48.524;9.056;2023-07-09T01:43:39;7.77;;;5.77;;
505;SDS011;551;48.524;9.056;2023-07-09T01:46:06;6.17;;;5.30;;
505;SDS011;551;48.524;9.056;2023-07-09T01:48:33;8.10;;;5.57;;
505;SDS011;551;48.524;9.056;2023-07-09T01:51:06;10.53;;;5.60;;
505;SDS011;551;48.524;9.056;2023-07-09T01:53:33;11.00;;;5.83;;
505;SDS011;551;48.524;9.056;2023-07-09T01:56:01;7.27;;;5.10;;
505;SDS011;551;48.524;9.056;2023-07-09T01:58:27;8.27;;;5.33;;
505;SDS011;551;48.524;9.056;2023-07-09T02:00:55;6.77;;;4.93;;
505;SDS011;551;48.524;9.056;2023-07-09T02:03:21;8.43;;;4.90;;
505;SDS011;551;48.524;9.056;2023-07-09T02:05:47;6.63;;;5.10;;
505;SDS011;551;48.524;9.056;2023-07-09T02:08:13;12.60;;;5.63;;
505;SDS011;551;48.524;9.056;2023-07-09T02:10:38;6.17;;;4.80;;
505;SDS011;551;48.524;9.056;2023-07-09T02:13:04;5.93;;;5.33;;
505;SDS011;551;48.524;9.056;2023-07-09T02:15:30;8.30;;;5.63;;
505;SDS011;551;48.524;9.056;2023-07-09T02:17:55;9.40;;;5.40;;
505;SDS011;551;48.524;9.056;2023-07-09T02:20:23;13.03;;;5.57;;
505;SDS011;551;48.524;9.056;2023-07-09T02:22:51;10.83;;;5.77;;
505;SDS011;551;48.524;9.056;2023-07-09T02:25:16;5.17;;;4.57;;
505;SDS011;551;48.524;9.056;2023-07-09T02:27:42;6.20;;;5.23;;
505;SDS011;551;48.524;9.056;2023-07-09T02:30:07;8.23;;;5.70;;
505;SDS011;551;48.524;9.056;2023-07-09T02:32:33;13.67;;;6.63;;
505;SDS011;551;48.524;9.056;2023-07-09T02:34:59;10.27;;;5.43;;
505;SDS011;551;48.524;9.056;2023-07-09T02:37:25;10.97;;;5.93;;
505;SDS011;551;48.524;9.056;2023-07-09T02:39:51;12.27;;;5.77;;
505;SDS011;551;48.524;9.056;2023-07-09T02:42:18;9.00;;;6.20;;
505;SDS011;551;48.524;9.056;2023-07-09T02:44:45;7.20;;;5.50;;
505;SDS011;551;48.524;9.056;2023-07-09T02:47:11;7.33;;;5.80;;
505;SDS011;551;48.524;9.056;2023-07-09T02:49:38;7.67;;;6.07;;
505;SDS011;551;48.524;9.056;2023-07-09T02:52:04;5.70;;;5.00;;
505;SDS011;551;48.524;9.056;2023-07-09T02:54:30;9.13;;;5.63;;
505;SDS011;551;48.524;9.056;2023-07-09T02:56:56;8.93;;;6.10;;
505;SDS011;551;48.524;9.056;2023-07-09T02:59:21;7.00;;;5.47;;
505;SDS011;551;48.524;9.056;2023-07-09T03:01:47;9.67;;;6.30;;
505;SDS011;551;48.524;9.056;2023-07-09T03:04:14;6.07;;;5.47;;
505;SDS011;551;48.524;9.056;2023-07-09T03:06:40;9.17;;;7.20;;
505;SDS011;551;48.524;9.056;2023-07-09T03:09:05;11.30;;;6.10;;
505;SDS011;551;48.524;9.056;2023-07-09T03:11:32;6.70;;;5.63;;
505;SDS011;551;48.524;9.056;2023-07-09T03:13:58;7.40;;;5.70;;
505;SDS011;551;48.524;9.056;2023-07-09T03:16:28;10.63;;;6.10;;
505;SDS011;551;48.524;9.056;2023-07-09T03:18:56;7.77;;;5.70;;
505;SDS011;551;48.524;9.056;2023-07-09T03:21:22;11.43;;;7.00;;
505;SDS011;551;48.524;9.056;2023-07-09T03:23:49;8.63;;;6.30;;
505;SDS011;551;48.524;9.056;2023-07-09T03:26:14;8.50;;;6.70;;
505;SDS011;551;48.524;9.056;2023-07-09T03:28:40;7.30;;;6.27;;
505;SDS011;551;48.524;9.056;2023-07-09T03:31:06;6.40;;;5.27;;
505;SDS011;551;48.524;9.056;2023-07-09T03:33:31;7.90;;;6.37;;
505;SDS011;551;48.524;9.056;2023-07-09T03:35:56;7.30;;;5.80;;
505;SDS011;551;48.524;9.056;2023-07-09T03:38:22;11.93;;;7.27;;
505;SDS011;551;48.524;9.056;2023-07-09T03:40:49;9.40;;;6.53;;
505;SDS011;551;48.524;9.056;2023-07-09T03:43:18;7.33;;;5.70;;
505;SDS011;551;48.524;9.056;2023-07-09T03:45:45;7.27;;;5.90;;
505;SDS011;551;48.524;9.056;2023-07-09T03:48:11;10.20;;;6.23;;
505;SDS011;551;48.524;9.056;2023-07-09T03:50:37;6.53;;;5.80;;
505;SDS011;551;48.524;9.056;2023-07-09T03:53:03;9.13;;;6.37;;
505;SDS011;551;48.524;9.056;2023-07-09T03:55:30;12.40;;;6.40;;
505;SDS011;551;48.524;9.056;2023-07-09T03:57:56;7.60;;;6.03;;
505;SDS011;551;48.524;9.056;2023-07-09T04:00:22;7.97;;;6.53;;
505;SDS011;551;48.524;9.056;2023-07-09T04:02:49;8.80;;;6.10;;
505;SDS011;551;48.524;9.056;2023-07-09T04:05:15;9.30;;;5.97;;
505;SDS011;551;48.524;9.056;2023-07-09T04:07:40;11.57;;;6.50;;
505;SDS011;551;48.524;9.056;2023-07-09T04:10:06;8.90;;;6.40;;
505;SDS011;551;48.524;9.056;2023-07-09T04:12:32;8.73;;;6.07;;
505;SDS011;551;48.524;9.056;2023-07-09T04:14:58;7.40;;;5.50;;
505;SDS011;551;48.524;9.056;2023-07-09T04:17:23;11.00;;;7.10;;
505;SDS011;551;48.524;9.056;2023-07-09T04:19:49;8.27;;;5.60;;
505;SDS011;551;48.524;9.056;2023-07-09T04:22:16;8.33;;;6.20;;
505;SDS011;551;48.524;9.056;2023-07-09T04:24:41;9.20;;;6.50;;
505;SDS011;551;48.524;9.056;2023-07-09T04:27:07;7.60;;;5.67;;
505;SDS011;551;48.524;9.056;2023-07-09T04:29:33;8.40;;;6.63;;
505;SDS011;551;48.524;9.056;2023-07-09T04:32:00;10.40;;;7.53;;
505;SDS011;551;48.524;9.056;2023-07-09T04:34:26;11.03;;;6.67;;
505;SDS011;551;48.524;9.056;2023-07-09T04:36:51;10.33;;;7.23;;
505;SDS011;551;48.524;9.056;2023-07-09T04:39:17;7.77;;;6.73;;
505;SDS011;551;48.524;9.056;2023-07-09T04:41:42;9.57;;;5.90;;
505;SDS011;551;48.524;9.056;2023-07-09T04:44:08;9.40;;;6.20;;
505;SDS011;551;48.524;9.056;2023-07-09T04:46:33;11.87;;;7.43;;
505;SDS011;551;48.524;9.056;2023-07-09T04:48:59;8.93;;;7.20;;
505;SDS011;551;48.524;9.056;2023-07-09T04:51:25;12.83;;;6.77;;
505;SDS011;551;48.524;9.056;2023-07-09T04:53:51;13.43;;;8.00;;
505;SDS011;551;48.524;9.056;2023-07-09T04:56:16;14.20;;;6.63;;
505;SDS011;551;48.524;9.056;2023-07-09T04:58:42;8.77;;;5.97;;
505;SDS011;551;48.524;9.056;2023-07-09T05:01:08;6.90;;;5.40;;
505;SDS011;551;48.524;9.056;2023-07-09T05:03:33;9.00;;;6.00;;
505;SDS011;551;48.524;9.056;2023-07-09T05:05:59;8.47;;;5.83;;
505;SDS011;551;48.524;9.056;2023-07-09T05:08:24;10.20;;;7.20;;
505;SDS011;551;48.524;9.056;2023-07-09T05:10:51;8.27;;;6.10;;
505;SDS011;551;48.524;9.056;2023-07-09T05:13:18;8.20;;;6.20;;
505;SDS011;551;48.524;9.056;2023-07-09T05:15:45;10.30;;;5.97;;
505;SDS011;551;48.524;9.056;2023-07-09T05:18:11;7.50;;;6.40;;
505;SDS011;551;48.524;9.056;2023-07-09T05:20:38;10.40;;;6.60;;
505;SDS011;551;48.524;9.056;2023-07-09T05:23:05;10.73;;;6.37;;
505;SDS011;551;48.524;9.056;2023-07-09T05:25:30;7.23;;;6.33;;
505;SDS011;551;48.524;9.056;2023-07-09T05:27:56;11.47;;;6.50;;
505;SDS011;551;48.524;9.056;2023-07-09T05:30:22;8.87;;;6.57;;
505;SDS011;551;48.524;9.056;2023-07-09T05:32:47;10.03;;;5.90;;
505;SDS011;551;48.524;9.056;2023-07-09T05:35:13;10.70;;;6.57;;
505;SDS011;551;48.524;9.056;2023-07-09T05:37:39;8.30;;;6.07;;
505;SDS011;551;48.524;9.056;2023-07-09T05:40:06;8.20;;;5.60;;
505;SDS011;551;48.524;9.056;2023-07-09T05:42:32;6.53;;;5.87;;
505;SDS011;551;48.524;9.056;2023-07-09T05:44:58;7.97;;;6.00;;
505;SDS011;551;48.524;9.056;2023-07-09T05:47:24;9.40;;;6.00;;
505;SDS011;551;48.524;9.056;2023-07-09T05:49:50;8.00;;;6.50;;
505;SDS011;551;48.524;9.056;2023-07-09T05:52:17;8.03;;;6.80;;
505;SDS011;551;48.524;9.056;2023-07-09T05:54:43;11.90;;;6.70;;
505;SDS011;551;48.524;9.056;2023-07-09T05:57:09;6.43;;;5.50;;
505;SDS011;551;48.524;9.056;2023-07-09T05:59:35;8.20;;;5.73;;
505;SDS011;551;48.524;9.056;2023-07-09T06:02:00;6.90;;;5.60;;
505;SDS011;551;48.524;9.056;2023-07-09T06:04:27;7.70;;;6.87;;
505;SDS011;551;48.524;9.056;2023-07-09T06:06:53;7.67;;;6.50;;
505;SDS011;551;48.524;9.056;2023-07-09T06:09:18;6.70;;;5.80;;
505;SDS011;551;48.524;9.056;2023-07-09T06:11:44;11.53;;;6.93;;
505;SDS011;551;48.524;9.056;2023-07-09T06:14:09;8.17;;;7.37;;
505;SDS011;551;48.524;9.056;2023-07-09T06:16:35;6.33;;;5.60;;
505;SDS011;551;48.524;9.056;2023-07-09T06:19:02;7.27;;;6.57;;
505;SDS011;551;48.524;9.056;2023-07-09T06:21:27;6.67;;;5.97;;
505;SDS011;551;48.524;9.056;2023-07-09T06:23:53;6.90;;;5.97;;
505;SDS011;551;48.524;9.056;2023-07-09T06:26:18;7.30;;;6.60;;
505;SDS011;551;48.524;9.056;2023-07-09T06:28:44;7.40;;;6.13;;
505;SDS011;551;48.524;9.056;2023-07-09T06:31:10;6.37;;;5.80;;
505;SDS011;551;48.524;9.056;2023-07-09T06:33:35;7.47;;;6.40;;
505;SDS011;551;48.524;9.056;2023-07-09T06:36:01;7.80;;;5.90;;
505;SDS011;551;48.524;9.056;2023-07-09T06:38:27;10.37;;;6.33;;
505;SDS011;551;48.524;9.056;2023-07-09T06:40:54;6.90;;;6.20;;
505;SDS011;551;48.524;9.056;2023-07-09T06:43:20;9.57;;;6.37;;
505;SDS011;551;48.524;9.056;2023-07-09T06:45:53;9.40;;;6.90;;
505;SDS011;551;48.524;9.056;2023-07-09T06:48:21;7.30;;;6.60;;
505;SDS011;551;48.524;9.056;2023-07-09T06:50:47;7.03;;;6.17;;
505;SDS011;551;48.524;9.056;2023-07-09T06:53:13;6.83;;;5.83;;
505;SDS011;551;48.524;9.056;2023-07-09T06:55:38;7.07;;;6.37;;
505;SDS011;551;48.524;9.056;2023-07-09T06:58:04;7.00;;;6.30;;
505;SDS011;551;48.524;9.056;2023-07-09T07:00:30;8.70;;;6.50;;
505;SDS011;551;48.524;9.056;2023-07-09T07:02:55;7.50;;;6.77;;
505;SDS011;551;48.524;9.056;2023-07-09T07:05:24;10.43;;;6.33;;
505;SDS011;551;48.524;9.056;2023-07-09T07:07:49;8.50;;;5.97;;
505;SDS011;551;48.524;9.056;2023-07-09T07:10:15;7.93;;;5.70;;
505;SDS011;551;48.524;9.056;2023-07-09T07:12:44;6.83;;;6.23;;
505;SDS011;551;48.524;9.056;2023-07-09T07:15:15;10.83;;;6.60;;
505;SDS011;551;48.524;9.056;2023-07-09T07:17:43;8.40;;;6.17;;
505;SDS011;551;48.524;9.056;2023-07-09T07:20:10;6.80;;;6.30;;
505;SDS011;551;48.524;9.056;2023-07-09T07:22:37;7.63;;;6.87;;
505;SDS011;551;48.524;9.056;2023-07-09T07:25:03;9.40;;;6.60;;
505;SDS011;551;48.524;9.056;2023-07-09T07:27:30;7.00;;;6.27;;
505;SDS011;551;48.524;9.056;2023-07-09T07:29:56;7.00;;;5.90;;
505;SDS011;551;48.524;9.056;2023-07-09T07:32:22;7.13;;;6.43;;
505;SDS011;551;48.524;9.056;2023-07-09T07:34:47;7.50;;;6.80;;
505;SDS011;551;48.524;9.056;2023-07-09T07:37:13;7.80;;;6.60;;
505;SDS011;551;48.524;9.056;2023-07-09T07:39:39;9.40;;;6.70;;
505;SDS011;551;48.524;9.056;2023-07-09T07:42:05;6.93;;;6.40;;
505;SDS011;551;48.524;9.056;2023-07-09T07:44:31;6.77;;;6.17;;
505;SDS011;551;48.524;9.056;2023-07-09T07:46:57;6.67;;;6.07;;
505;SDS011;551;48.524;9.056;2023-07-09T07:49:23;8.15;;;6.63;;
505;SDS011;551;48.524;9.056;2023-07-09T07:51:48;6.80;;;6.20;;
505;SDS011;551;48.524;9.056;2023-07-09T07:54:14;8.60;;;6.45;;
505;SDS011;551;48.524;9.056;2023-07-09T07:56:39;6.57;;;6.03;;
505;SDS011;551;48.524;9.056;2023-07-09T07:59:06;6.45;;;5.95;;
505;SDS011;551;48.524;9.056;2023-07-09T08:01:32;7.72;;;7.03;;
505;SDS011;551;48.524;9.056;2023-07-09T08:04:00;6.72;;;6.15;;
505;SDS011;551;48.524;9.056;2023-07-09T08:06:26;6.72;;;6.10;;
505;SDS011;551;48.524;9.056;2023-07-09T08:08:52;7.38;;;6.18;;
505;SDS011;551;48.524;9.056;2023-07-09T08:11:17;7.30;;;6.60;;
505;SDS011;551;48.524;9.056;2023-07-09T08:13:43;7.20;;;6.60;;
505;SDS011;551;48.524;9.056;2023-07-09T08:16:08;6.97;;;6.38;;
505;SDS011;551;48.524;9.056;2023-07-09T08:18:36;7.20;;;6.45;;
505;SDS011;551;48.524;9.056;2023-07-09T08:21:02;7.55;;;6.82;;
505;SDS011;551;48.524;9.056;2023-07-09T08:23:28;8.10;;;6.70;;
505;SDS011;551;48.524;9.056;2023-07-09T08:25:54;7.13;;;6.30;;
505;SDS011;551;48.524;9.056;2023-07-09T08:28:21;7.03;;;6.43;;
505;SDS011;551;48.524;9.056;2023-07-09T08:30:47;6.72;;;6.13;;
505;SDS011;551;48.524;9.056;2023-07-09T08:33:12;7.25;;;6.50;;
505;SDS011;551;48.524;9.056;2023-07-09T08:35:38;5.82;;;5.32;;
505;SDS011;551;48.524;9.056;2023-07-09T08:38:06;7.78;;;6.78;;
505;SDS011;551;48.524;9.056;2023-07-09T08:40:32;7.65;;;6.75;;
505;SDS011;551;48.524;9.056;2023-07-09T08:43:01;6.70;;;6.20;;
505;SDS011;551;48.524;9.056;2023-07-09T08:48:16;5.75;;;5.35;;
505;SDS011;551;48.524;9.056;2023-07-09T08:50:54;6.55;;;6.15;;
505;SDS011;551;48.524;9.056;2023-07-09T08:53:34;6.90;;;6.20;;
505;SDS011;551;48.524;9.056;2023-07-09T08:56:04;7.68;;;6.43;;
505;SDS011;551;48.524;9.056;2023-07-09T08:58:34;5.95;;;5.47;;
505;SDS011;551;48.524;9.056;2023-07-09T09:01:03;8.15;;;6.18;;
505;SDS011;551;48.524;9.056;2023-07-09T09:03:38;6.45;;;5.85;;
505;SDS011;551;48.524;9.056;2023-07-09T09:08:52;7.40;;;5.65;;
505;SDS011;551;48.524;9.056;2023-07-09T09:16:48;6.00;;;5.55;;
505;SDS011;551;48.524;9.056;2023-07-09T09:19:23;6.75;;;5.43;;
505;SDS011;551;48.524;9.056;2023-07-09T09:21:54;5.97;;;5.43;;
505;SDS011;551;48.524;9.056;2023-07-09T09:24:35;6.55;;;5.63;;
505;SDS011;551;48.524;9.056;2023-07-09T09:27:02;7.00;;;5.93;;
505;SDS011;551;48.524;9.056;2023-07-09T09:29:27;6.03;;;5.53;;
505;SDS011;551;48.524;9.056;2023-07-09T09:31:54;6.38;;;5.78;;
505;SDS011;551;48.524;9.056;2023-07-09T09:34:24;5.35;;;4.90;;
505;SDS011;551;48.524;9.056;2023-07-09T09:36:53;7.03;;;5.90;;
505;SDS011;551;48.524;9.056;2023-07-09T09:39:20;5.10;;;4.70;;
505;SDS011;551;48.524;9.056;2023-07-09T09:41:47;5.55;;;5.13;;
505;SDS011;551;48.524;9.056;2023-07-09T09:44:20;5.78;;;5.25;;
505;SDS011;551;48.524;9.056;2023-07-09T09:46:51;5.55;;;5.25;;
505;SDS011;551;48.524;9.056;2023-07-09T09:49:16;6.38;;;5.80;;
505;SDS011;551;48.524;9.056;2023-07-09T09:51:44;6.68;;;5.60;;
505;SDS011;551;48.524;9.056;2023-07-09T09:54:14;5.72;;;5.43;;
505;SDS011;551;48.524;9.056;2023-07-09T09:56:50;6.45;;;5.10;;
505;SDS011;551;48.524;9.056;2023-07-09T09:59:24;5.78;;;5.32;;
505;SDS011;551;48.524;9.056;2023-07-09T10:01:58;5.97;;;5.50;;
505;SDS011;551;48.524;9.056;2023-07-09T10:04:26;6.25;;;5.75;;
505;SDS011;551;48.524;9.056;2023-07-09T10:06:54;5.53;;;5.07;;
505;SDS011;551;48.524;9.056;2023-07-09T10:12:29;6.03;;;5.47;;
505;SDS011;551;48.524;9.056;2023-07-09T10:18:00;5.57;;;5.07;;
505;SDS011;551;48.524;9.056;2023-07-09T10:20:52;6.63;;;6.00;;
505;SDS011;551;48.524;9.056;2023-07-09T10:23:39;5.63;;;5.28;;
505;SDS011;551;48.524;9.056;2023-07-09T10:26:23;5.75;;;5.28;;
505;SDS011;551;48.524;9.056;2023-07-09T10:31:49;6.15;;;5.57;;
505;SDS011;551;48.524;9.056;2023-07-09T10:34:26;6.05;;;5.50;;
505;SDS011;551;48.524;9.056;2023-07-09T10:39:51;6.70;;;5.63;;
505;SDS011;551;48.524;9.056;2023-07-09T10:42:23;5.88;;;5.47;;
505;SDS011;551;48.524;9.056;2023-07-09T10:44:58;5.35;;;4.95;;
505;SDS011;551;48.524;9.056;2023-07-09T10:47:37;5.57;;;5.07;;
505;SDS011;551;48.524;9.056;2023-07-09T10:50:14;5.28;;;4.93;;
505;SDS011;551;48.524;9.056;2023-07-09T10:52:44;6.28;;;5.25;;
505;SDS011;551;48.524;9.056;2023-07-09T10:58:04;5.55;;;5.05;;
505;SDS011;551;48.524;9.056;2023-07-09T11:00:41;6.20;;;5.30;;
505;SDS011;551;48.524;9.056;2023-07-09T11:03:19;5.65;;;5.20;;
505;SDS011;551;48.524;9.056;2023-07-09T11:05:51;5.25;;;4.75;;
505;SDS011;551;48.524;9.056;2023-07-09T11:08:18;6.00;;;5.18;;
505;SDS011;551;48.524;9.056;2023-07-09T11:10:53;5.88;;;5.38;;
505;SDS011;551;48.524;9.056;2023-07-09T11:13:29;5.25;;;4.70;;
505;SDS011;551;48.524;9.056;2023-07-09T11:16:12;4.47;;;4.18;;
505;SDS011;551;48.524;9.056;2023-07-09T11:18:51;6.55;;;6.05;;
505;SDS011;551;48.524;9.056;2023-07-09T11:21:19;5.80;;;5.40;;
505;SDS011;551;48.524;9.056;2023-07-09T11:23:52;6.15;;;5.30;;
505;SDS011;551;48.524;9.056;2023-07-09T11:26:29;6.10;;;5.30;;
505;SDS011;551;48.524;9.056;2023-07-09T11:29:15;6.00;;;5.22;;
505;SDS011;551;48.524;9.056;2023-07-09T11:31:43;6.18;;;5.57;;
505;SDS011;551;48.524;9.056;2023-07-09T11:36:47;5.72;;;5.15;;
505;SDS011;551;48.524;9.056;2023-07-09T11:39:23;6.20;;;5.50;;
505;SDS011;551;48.524;9.056;2023-07-09T11:41:52;6.07;;;5.47;;
505;SDS011;551;48.524;9.056;2023-07-09T11:44:19;8.90;;;5.78;;
505;SDS011;551;48.524;9.056;2023-07-09T11:46:52;6.07;;;5.47;;
505;SDS011;551;48.524;9.056;2023-07-09T11:49:45;6.22;;;5.63;;
505;SDS011;551;48.524;9.056;2023-07-09T11:52:37;5.72;;;5.22;;
505;SDS011;551;48.524;9.056;2023-07-09T11:55:28;5.20;;;4.80;;
505;SDS011;551;48.524;9.056;2023-07-09T11:57:57;5.53;;;5.13;;
505;SDS011;551;48.524;9.056;2023-07-09T12:00:25;5.80;;;4.97;;
505;SDS011;551;48.524;9.056;2023-07-09T12:02:54;8.88;;;5.65;;
505;SDS011;551;48.524;9.056;2023-07-09T12:05:21;6.37;;;4.77;;
505;SDS011;551;48.524;9.056;2023-07-09T12:07:51;7.20;;;4.40;;
505;SDS011;551;48.524;9.056;2023-07-09T12:10:23;5.03;;;4.63;;
505;SDS011;551;48.524;9.056;2023-07-09T12:12:59;5.03;;;4.53;;
505;SDS011;551;48.524;9.056;2023-07-09T12:15:28;7.63;;;5.17;;
505;SDS011;551;48.524;9.056;2023-07-09T12:18:00;5.30;;;4.80;;
505;SDS011;551;48.524;9.056;2023-07-09T12:20:34;5.73;;;4.53;;
505;SDS011;551;48.524;9.056;2023-07-09T12:23:09;5.03;;;4.60;;
505;SDS011;551;48.524;9.056;2023-07-09T12:25:52;4.57;;;4.13;;
505;SDS011;551;48.524;9.056;2023-07-09T12:28:18;5.80;;;4.70;;
505;SDS011;551;48.524;9.056;2023-07-09T12:30:46;4.70;;;4.30;;
505;SDS011;551;48.524;9.056;2023-07-09T12:33:16;4.90;;;3.90;;
505;SDS011;551;48.524;9.056;2023-07-09T12:35:43;5.00;;;4.57;;
505;SDS011;551;48.524;9.056;2023-07-09T12:38:17;5.87;;;4.43;;
505;SDS011;551;48.524;9.056;2023-07-09T12:40:45;5.10;;;3.83;;
505;SDS011;551;48.524;9.056;2023-07-09T12:43:13;5.97;;;3.80;;
505;SDS011;551;48.524;9.056;2023-07-09T12:45:38;7.03;;;3.77;;
505;SDS011;551;48.524;9.056;2023-07-09T12:48:04;5.30;;;4.40;;
505;SDS011;551;48.524;9.056;2023-07-09T12:50:34;6.87;;;4.57;;
505;SDS011;551;48.524;9.056;2023-07-09T12:53:11;4.70;;;4.30;;
505;SDS011;551;48.524;9.056;2023-07-09T12:55:42;6.23;;;4.10;;
505;SDS011;551;48.524;9.056;2023-07-09T12:58:13;7.33;;;4.07;;
505;SDS011;551;48.524;9.056;2023-07-09T13:00:48;3.93;;;3.63;;
505;SDS011;551;48.524;9.056;2023-07-09T13:03:16;5.80;;;4.30;;
505;SDS011;551;48.524;9.056;2023-07-09T13:06:00;4.63;;;4.17;;
505;SDS011;551;48.524;9.056;2023-07-09T13:08:32;4.70;;;3.80;;
505;SDS011;551;48.524;9.056;2023-07-09T13:11:13;6.40;;;3.90;;
505;SDS011;551;48.524;9.056;2023-07-09T13:13:53;4.27;;;3.87;;
505;SDS011;551;48.524;9.056;2023-07-09T13:16:23;6.23;;;4.30;;
505;SDS011;551;48.524;9.056;2023-07-09T13:18:49;6.93;;;4.10;;
505;SDS011;551;48.524;9.056;2023-07-09T13:21:16;4.37;;;3.90;;
505;SDS011;551;48.524;9.056;2023-07-09T13:23:42;3.93;;;3.60;;
505;SDS011;551;48.524;9.056;2023-07-09T13:26:08;4.50;;;4.10;;
505;SDS011;551;48.524;9.056;2023-07-09T13:28:34;5.57;;;4.30;;
505;SDS011;551;48.524;9.056;2023-07-09T13:31:15;4.80;;;4.20;;
505;SDS011;551;48.524;9.056;2023-07-09T13:33:44;3.67;;;3.37;;
505;SDS011;551;48.524;9.056;2023-07-09T13:36:17;5.20;;;4.20;;
505;SDS011;551;48.524;9.056;2023-07-09T13:38:42;6.27;;;3.70;;
505;SDS011;551;48.524;9.056;2023-07-09T13:41:15;4.80;;;4.40;;
505;SDS011;551;48.524;9.056;2023-07-09T13:43:44;4.90;;;3.80;;
505;SDS011;551;48.524;9.056;2023-07-09T13:46:11;4.97;;;4.07;;
505;SDS011;551;48.524;9.056;2023-07-09T13:48:37;5.37;;;4.00;;
505;SDS011;551;48.524;9.056;2023-07-09T13:51:14;5.70;;;4.30;;
505;SDS011;551;48.524;9.056;2023-07-09T13:53:44;7.83;;;4.27;;
505;SDS011;551;48.524;9.056;2023-07-09T13:56:10;6.20;;;3.87;;
505;SDS011;551;48.524;9.056;2023-07-09T13:58:36;4.33;;;3.93;;
505;SDS011;551;48.524;9.056;2023-07-09T14:01:09;5.87;;;3.90;;
505;SDS011;551;48.524;9.056;2023-07-09T14:03:40;7.73;;;4.20;;
505;SDS011;551;48.524;9.056;2023-07-09T14:06:14;4.83;;;4.40;;
505;SDS011;551;48.524;9.056;2023-07-09T14:08:41;5.83;;;4.03;;
505;SDS011;551;48.524;9.056;2023-07-09T14:11:13;5.60;;;5.03;;
505;SDS011;551;48.524;9.056;2023-07-09T14:13:41;5.13;;;3.70;;
505;SDS011;551;48.524;9.056;2023-07-09T14:16:10;5.40;;;4.10;;
505;SDS011;551;48.524;9.056;2023-07-09T14:18:37;6.13;;;3.90;;
505;SDS011;551;48.524;9.056;2023-07-09T14:21:08;7.07;;;4.77;;
505;SDS011;551;48.524;9.056;2023-07-09T14:23:38;4.33;;;3.97;;
505;SDS011;551;48.524;9.056;2023-07-09T14:26:03;4.70;;;4.30;;
505;SDS011;551;48.524;9.056;2023-07-09T14:28:29;4.83;;;4.43;;
505;SDS011;551;48.524;9.056;2023-07-09T14:30:54;6.67;;;5.03;;
505;SDS011;551;48.524;9.056;2023-07-09T14:33:20;5.10;;;4.13;;
505;SDS011;551;48.524;9.056;2023-07-09T14:35:47;6.90;;;3.97;;
505;SDS011;551;48.524;9.056;2023-07-09T14:38:19;4.50;;;4.10;;
505;SDS011;551;48.524;9.056;2023-07-09T14:40:45;5.40;;;4.10;;
505;SDS011;551;48.524;9.056;2023-07-09T14:43:12;4.90;;;4.40;;
505;SDS011;551;48.524;9.056;2023-07-09T14:45:37;4.90;;;3.60;;
505;SDS011;551;48.524;9.056;2023-07-09T14:48:13;5.13;;;4.00;;
505;SDS011;551;48.524;9.056;2023-07-09T14:50:40;4.93;;;4.10;;
505;SDS011;551;48.524;9.056;2023-07-09T14:53:11;4.80;;;4.30;;
505;SDS011;551;48.524;9.056;2023-07-09T14:55:49;4.87;;;4.33;;
505;SDS011;551;48.524;9.056;2023-07-09T14:58:18;6.37;;;4.07;;
505;SDS011;551;48.524;9.056;2023-07-09T15:00:45;6.70;;;4.67;;
505;SDS011;551;48.524;9.056;2023-07-09T15:03:15;5.90;;;4.17;;
505;SDS011;551;48.524;9.056;2023-07-09T15:05:48;7.20;;;4.50;;
505;SDS011;551;48.524;9.056;2023-07-09T15:08:15;5.00;;;3.70;;
505;SDS011;551;48.524;9.056;2023-07-09T15:10:43;4.37;;;4.00;;
505;SDS011;551;48.524;9.056;2023-07-09T15:13:16;4.43;;;3.83;;
505;SDS011;551;48.524;9.056;2023-07-09T15:15:43;6.53;;;4.20;;
505;SDS011;551;48.524;9.056;2023-07-09T15:18:10;6.23;;;4.23;;
505;SDS011;551;48.524;9.056;2023-07-09T15:20:38;4.23;;;3.50;;
505;SDS011;551;48.524;9.056;2023-07-09T15:23:04;5.03;;;3.47;;
505;SDS011;551;48.524;9.056;2023-07-09T15:25:30;5.77;;;4.37;;
505;SDS011;551;48.524;9.056;2023-07-09T15:27:56;4.10;;;3.70;;
505;SDS011;551;48.524;9.056;2023-07-09T15:30:25;6.33;;;3.93;;
505;SDS011;551;48.524;9.056;2023-07-09T15:32:54;4.13;;;3.73;;
505;SDS011;551;48.524;9.056;2023-07-09T15:35:22;4.67;;;4.27;;
505;SDS011;551;48.524;9.056;2023-07-09T15:37:53;4.73;;;4.23;;
505;SDS011;551;48.524;9.056;2023-07-09T15:40:23;5.03;;;4.13;;
505;SDS011;551;48.524;9.056;2023-07-09T15:42:57;4.63;;;4.10;;
505;SDS011;551;48.524;9.056;2023-07-09T15:45:25;4.30;;;3.90;;
505;SDS011;551;48.524;9.056;2023-07-09T15:47:51;4.10;;;3.70;;
505;SDS011;551;48.524;9.056;2023-07-09T15:50:25;4.90;;;4.40;;
505;SDS011;551;48.524;9.056;2023-07-09T15:52:52;5.43;;;4.50;;
505;SDS011;551;48.524;9.056;2023-07-09T15:55:20;6.30;;;4.27;;
505;SDS011;551;48.524;9.056;2023-07-09T15:57:50;6.13;;;3.60;;
505;SDS011;551;48.524;9.056;2023-07-09T16:00:19;4.90;;;4.40;;
505;SDS011;551;48.524;9.056;2023-07-09T16:02:48;4.40;;;3.83;;
505;SDS011;551;48.524;9.056;2023-07-09T16:07:49;5.50;;;3.97;;
505;SDS011;551;48.524;9.056;2023-07-09T16:10:16;6.23;;;4.60;;
505;SDS011;551;48.524;9.056;2023-07-09T16:12:42;5.47;;;4.30;;
505;SDS011;551;48.524;9.056;2023-07-09T16:15:11;7.80;;;5.03;;
505;SDS011;551;48.524;9.056;2023-07-09T16:17:39;6.83;;;4.80;;
505;SDS011;551;48.524;9.056;2023-07-09T16:20:06;6.23;;;4.43;;
505;SDS011;551;48.524;9.056;2023-07-09T16:22:34;5.30;;;4.20;;
505;SDS011;551;48.524;9.056;2023-07-09T16:25:08;4.80;;;4.40;;
505;SDS011;551;48.524;9.056;2023-07-09T16:27:40;5.57;;;4.77;;